Time;durP1;ratioP1;P1;durP2;ratioP2;P2;SDS_P1;SDS_P2;PMS_P1;PMS_P2;Temp;Humidity;BMP_temperature;BMP_pressure;BME280_temperature;BME280_humidity;BME280_pressure;Samples;Min_cycle;Max_cycle;Signal;HPM_P1;HPM_P2
2022/06/26 00:00:08;;;;;;;3.80;2.83;;;;;;;;;;4937876;28;20482;-54
2022/06/26 00:02:34;;;;;;;2.53;2.30;;;;;;;;;;4926225;28;21082;-53
2022/06/26 00:05:00;;;;;;;8.37;3.17;;;;;;;;;;4944771;28;20453;-55
2022/06/26 00:07:26;;;;;;;5.20;4.70;;;;;;;;;;4909384;28;21241;-53
2022/06/26 00:09:52;;;;;;;6.03;3.97;;;;;;;;;;4940770;28;20450;-54
2022/06/26 00:12:19;;;;;;;7.40;4.30;;;;;;;;;;4919217;28;20536;-55
2022/06/26 00:14:45;;;;;;;3.80;3.20;;;;;;;;;;4934663;28;20969;-55
2022/06/26 00:17:13;;;;;;;6.30;3.43;;;;;;;;;;4937330;28;20441;-54
2022/06/26 00:19:39;;;;;;;5.30;4.80;;;;;;;;;;4937946;28;20510;-54
2022/06/26 00:22:06;;;;;;;11.07;10.07;;;;;;;;;;4936455;28;20435;-55
2022/06/26 00:24:56;;;;;;;11.03;9.93;;;;;;;;;;4923779;28;20446;-54
2022/06/26 00:27:27;;;;;;;3.30;3.00;;;;;;;;;;4928169;28;20444;-53
2022/06/26 00:29:53;;;;;;;4.63;2.07;;;;;;;;;;4911803;28;20456;-54
2022/06/26 00:32:20;;;;;;;2.47;2.27;;;;;;;;;;4922302;28;20549;-54
2022/06/26 00:34:46;;;;;;;2.60;2.07;;;;;;;;;;4940396;28;20446;-55
2022/06/26 00:37:12;;;;;;;1.83;1.50;;;;;;;;;;4934706;28;20549;-55
2022/06/26 00:39:38;;;;;;;2.30;1.70;;;;;;;;;;4933140;28;20226;-53
2022/06/26 00:42:04;;;;;;;2.20;1.70;;;;;;;;;;4917702;28;20478;-55
2022/06/26 00:44:30;;;;;;;1.80;1.50;;;;;;;;;;4937978;28;20446;-53
2022/06/26 00:46:57;;;;;;;1.83;1.40;;;;;;;;;;4917851;28;20451;-55
2022/06/26 00:49:23;;;;;;;1.70;1.50;;;;;;;;;;4932173;28;20449;-54
2022/06/26 00:51:50;;;;;;;2.83;1.83;;;;;;;;;;4925119;29;20455;-56
2022/06/26 00:54:17;;;;;;;4.10;2.03;;;;;;;;;;4933877;28;20439;-54
2022/06/26 00:56:42;;;;;;;2.37;2.17;;;;;;;;;;4938227;28;20555;-56
2022/06/26 00:59:08;;;;;;;2.77;2.53;;;;;;;;;;4914200;28;20470;-55
2022/06/26 01:01:34;;;;;;;2.43;2.23;;;;;;;;;;4939308;28;20479;-54
2022/06/26 01:04:01;;;;;;;2.27;2.07;;;;;;;;;;4891100;28;20438;-55
2022/06/26 01:06:27;;;;;;;2.50;2.30;;;;;;;;;;4944056;28;20187;-54
2022/06/26 01:08:53;;;;;;;5.83;2.30;;;;;;;;;;4916505;28;20448;-54
2022/06/26 01:11:20;;;;;;;2.47;2.07;;;;;;;;;;4959611;28;20788;-54
2022/06/26 01:13:51;;;;;;;2.50;2.30;;;;;;;;;;4898483;28;20512;-55
2022/06/26 01:16:21;;;;;;;2.90;1.80;;;;;;;;;;4941773;28;20454;-54
2022/06/26 01:18:48;;;;;;;2.80;2.13;;;;;;;;;;4943728;28;20442;-54
2022/06/26 01:21:14;;;;;;;2.33;2.13;;;;;;;;;;4949472;28;20501;-53
2022/06/26 01:23:40;;;;;;;2.80;2.03;;;;;;;;;;4940437;28;20538;-53
2022/06/26 01:26:06;;;;;;;2.20;2.00;;;;;;;;;;4938945;28;20431;-54
2022/06/26 01:28:32;;;;;;;3.10;2.80;;;;;;;;;;4917086;28;21022;-53
2022/06/26 01:31:00;;;;;;;2.73;2.53;;;;;;;;;;4939755;28;20473;-54
2022/06/26 01:33:26;;;;;;;4.23;3.00;;;;;;;;;;4916668;28;20199;-54
2022/06/26 01:35:59;;;;;;;3.87;2.43;;;;;;;;;;4945346;28;20443;-55
2022/06/26 01:38:25;;;;;;;3.10;2.80;;;;;;;;;;4894535;28;20218;-55
2022/06/26 01:40:52;;;;;;;2.93;2.03;;;;;;;;;;4950529;28;21023;-54
2022/06/26 01:43:19;;;;;;;2.73;2.43;;;;;;;;;;4919612;28;20463;-54
2022/06/26 01:45:48;;;;;;;2.33;2.13;;;;;;;;;;4946977;28;20465;-55
2022/06/26 01:48:14;;;;;;;3.50;2.70;;;;;;;;;;4913678;28;20489;-54
2022/06/26 01:50:40;;;;;;;3.63;2.13;;;;;;;;;;4948485;28;20443;-54
2022/06/26 01:53:06;;;;;;;2.20;1.97;;;;;;;;;;4932733;28;20505;-55
2022/06/26 01:55:34;;;;;;;2.63;2.43;;;;;;;;;;4950755;28;20644;-55
2022/06/26 01:58:03;;;;;;;2.37;2.17;;;;;;;;;;4940064;28;20572;-55
2022/06/26 02:00:32;;;;;;;4.17;2.17;;;;;;;;;;4942978;28;20478;-54
2022/06/26 02:02:58;;;;;;;3.40;2.63;;;;;;;;;;4940339;28;20434;-54
2022/06/26 02:05:24;;;;;;;2.90;2.37;;;;;;;;;;4947108;28;20446;-55
2022/06/26 02:07:50;;;;;;;3.23;2.20;;;;;;;;;;4920864;28;20184;-55
2022/06/26 02:15:52;;;;;;;2.53;2.30;;;;;;;;;;4935365;28;20887;-55
2022/06/26 02:18:18;;;;;;;2.57;2.37;;;;;;;;;;4948111;28;20439;-53
2022/06/26 02:20:44;;;;;;;2.87;2.67;;;;;;;;;;4911724;28;20486;-53
2022/06/26 02:23:10;;;;;;;3.50;2.60;;;;;;;;;;4928144;28;20439;-54
2022/06/26 02:25:44;;;;;;;3.50;2.50;;;;;;;;;;4943039;28;20451;-53
2022/06/26 02:28:16;;;;;;;3.50;2.80;;;;;;;;;;4931703;28;20443;-52
2022/06/26 02:30:51;;;;;;;2.90;2.37;;;;;;;;;;4944562;28;20471;-54
2022/06/26 02:33:19;;;;;;;2.90;2.43;;;;;;;;;;4927772;28;20562;-53
2022/06/26 02:35:48;;;;;;;2.63;2.00;;;;;;;;;;4936557;28;20538;-53
2022/06/26 02:38:21;;;;;;;2.73;2.40;;;;;;;;;;4918980;28;20453;-55
2022/06/26 02:40:47;;;;;;;3.23;2.43;;;;;;;;;;4939356;28;20483;-53
2022/06/26 02:43:15;;;;;;;2.50;2.00;;;;;;;;;;4910649;28;21699;-55
2022/06/26 02:45:41;;;;;;;2.63;2.37;;;;;;;;;;4954007;28;20439;-54
2022/06/26 02:48:07;;;;;;;1.87;1.70;;;;;;;;;;4926262;28;21262;-54
2022/06/26 02:50:33;;;;;;;2.60;2.27;;;;;;;;;;4940655;28;20427;-54
2022/06/26 02:53:27;;;;;;;2.20;2.00;;;;;;;;;;4920396;28;20809;-53
2022/06/26 02:55:53;;;;;;;2.73;2.53;;;;;;;;;;4942949;28;20439;-52
2022/06/26 02:58:19;;;;;;;2.63;2.43;;;;;;;;;;4924188;28;20458;-53
2022/06/26 03:00:51;;;;;;;2.77;1.77;;;;;;;;;;4920806;28;20218;-54
2022/06/26 03:03:18;;;;;;;3.07;2.47;;;;;;;;;;4956882;28;20251;-54
2022/06/26 03:05:47;;;;;;;2.07;1.87;;;;;;;;;;4919141;28;20450;-54
2022/06/26 03:08:25;;;;;;;4.23;2.10;;;;;;;;;;4938760;28;20437;-56
2022/06/26 03:10:57;;;;;;;3.13;2.13;;;;;;;;;;4915201;28;20442;-55
2022/06/26 03:13:23;;;;;;;2.60;2.40;;;;;;;;;;4939328;28;20490;-52
2022/06/26 03:15:49;;;;;;;2.10;1.90;;;;;;;;;;4914028;28;20438;-55
2022/06/26 03:18:15;;;;;;;4.10;2.20;;;;;;;;;;4943779;28;20453;-53
2022/06/26 03:20:43;;;;;;;2.60;2.17;;;;;;;;;;4931663;28;20521;-54
2022/06/26 03:23:11;;;;;;;3.10;2.63;;;;;;;;;;4936259;28;20845;-52
2022/06/26 03:25:44;;;;;;;2.60;2.40;;;;;;;;;;4918702;28;20509;-57
2022/06/26 03:28:13;;;;;;;4.53;2.60;;;;;;;;;;4939455;28;20961;-55
2022/06/26 03:30:40;;;;;;;3.20;2.40;;;;;;;;;;4918920;28;22791;-53
2022/06/26 03:33:07;;;;;;;3.40;2.40;;;;;;;;;;4934528;28;20440;-53
2022/06/26 03:35:39;;;;;;;2.37;2.00;;;;;;;;;;4926827;28;20474;-55
2022/06/26 03:38:05;;;;;;;6.37;2.60;;;;;;;;;;4947474;28;21190;-55
2022/06/26 03:40:31;;;;;;;3.60;2.00;;;;;;;;;;4925073;28;21328;-55
2022/06/26 03:43:11;;;;;;;2.00;1.80;;;;;;;;;;4936370;28;20447;-56
2022/06/26 03:45:38;;;;;;;3.90;2.23;;;;;;;;;;4918044;28;20460;-52
2022/06/26 03:48:10;;;;;;;2.40;2.03;;;;;;;;;;4904012;28;20471;-56
2022/06/26 03:50:36;;;;;;;3.40;2.13;;;;;;;;;;4936692;28;20447;-54
2022/06/26 03:53:11;;;;;;;2.50;1.90;;;;;;;;;;4918388;28;20436;-56
2022/06/26 03:55:37;;;;;;;2.10;1.90;;;;;;;;;;4937364;28;20453;-55
2022/06/26 03:58:03;;;;;;;2.90;2.70;;;;;;;;;;4909660;28;20470;-52
2022/06/26 04:00:29;;;;;;;2.90;1.97;;;;;;;;;;4940722;28;20985;-56
2022/06/26 04:02:56;;;;;;;2.13;1.93;;;;;;;;;;4925415;28;20525;-55
2022/06/26 04:05:22;;;;;;;2.10;1.90;;;;;;;;;;4933892;28;20457;-53
2022/06/26 04:07:48;;;;;;;2.47;2.03;;;;;;;;;;4943245;28;20514;-55
2022/06/26 04:10:14;;;;;;;2.57;2.37;;;;;;;;;;4922957;28;20441;-54
2022/06/26 04:12:40;;;;;;;7.40;2.00;;;;;;;;;;4928925;28;21113;-54
2022/06/26 04:15:16;;;;;;;2.60;2.30;;;;;;;;;;4920402;28;20539;-56
2022/06/26 04:17:53;;;;;;;3.00;2.10;;;;;;;;;;4927479;28;20453;-56
2022/06/26 04:20:20;;;;;;;2.40;2.00;;;;;;;;;;4911627;28;20490;-54
2022/06/26 04:22:59;;;;;;;2.23;1.90;;;;;;;;;;4934952;28;20443;-56
2022/06/26 04:25:25;;;;;;;2.20;2.00;;;;;;;;;;4917037;28;20512;-56
2022/06/26 04:27:55;;;;;;;2.67;2.40;;;;;;;;;;4940059;28;20491;-55
2022/06/26 04:30:22;;;;;;;2.60;2.40;;;;;;;;;;4913072;28;20616;-53
2022/06/26 04:32:48;;;;;;;2.10;1.83;;;;;;;;;;4946024;28;23228;-54
2022/06/26 04:35:14;;;;;;;2.30;1.77;;;;;;;;;;4946007;28;20278;-54
2022/06/26 04:37:40;;;;;;;3.47;2.37;;;;;;;;;;4946460;28;20600;-53
2022/06/26 04:40:15;;;;;;;2.47;2.27;;;;;;;;;;4929710;28;20489;-55
2022/06/26 04:42:44;;;;;;;1.80;1.60;;;;;;;;;;4937711;28;20445;-52
2022/06/26 04:45:10;;;;;;;3.07;2.10;;;;;;;;;;4925509;28;20443;-55
2022/06/26 04:47:36;;;;;;;2.27;1.87;;;;;;;;;;4946038;28;20497;-55
2022/06/26 04:50:03;;;;;;;2.57;2.17;;;;;;;;;;4924056;28;20933;-55
2022/06/26 04:52:32;;;;;;;2.90;2.13;;;;;;;;;;4952890;28;20482;-56
2022/06/26 04:55:14;;;;;;;2.23;1.90;;;;;;;;;;4934001;28;20478;-55
2022/06/26 04:57:41;;;;;;;2.77;2.10;;;;;;;;;;4935945;28;20435;-53
2022/06/26 05:00:12;;;;;;;2.43;2.10;;;;;;;;;;4931313;28;20501;-55
2022/06/26 05:02:38;;;;;;;2.67;2.10;;;;;;;;;;4945105;28;20506;-55
2022/06/26 05:05:06;;;;;;;2.57;2.10;;;;;;;;;;4933269;28;20443;-55
2022/06/26 05:07:34;;;;;;;4.50;2.63;;;;;;;;;;4936836;28;20523;-55
2022/06/26 05:10:06;;;;;;;2.27;2.07;;;;;;;;;;4922100;28;20996;-55
2022/06/26 05:12:33;;;;;;;4.47;2.30;;;;;;;;;;4942570;28;20462;-53
2022/06/26 05:15:05;;;;;;;2.97;2.10;;;;;;;;;;4930086;28;20446;-56
2022/06/26 05:17:31;;;;;;;3.73;2.07;;;;;;;;;;4936237;28;20446;-55
2022/06/26 05:19:57;;;;;;;2.07;1.87;;;;;;;;;;4938441;28;20473;-54
2022/06/26 05:22:23;;;;;;;2.60;2.40;;;;;;;;;;4907896;28;20439;-54
2022/06/26 05:24:49;;;;;;;2.43;2.23;;;;;;;;;;4942586;28;20537;-53
2022/06/26 05:27:15;;;;;;;3.17;2.20;;;;;;;;;;4938842;28;20432;-55
2022/06/26 05:29:41;;;;;;;2.50;2.30;;;;;;;;;;4941665;28;20511;-53
2022/06/26 05:32:07;;;;;;;2.77;2.57;;;;;;;;;;4926768;28;20530;-54
2022/06/26 05:34:33;;;;;;;2.80;2.50;;;;;;;;;;4943341;28;20207;-53
2022/06/26 05:36:59;;;;;;;2.70;2.27;;;;;;;;;;4925287;28;20443;-54
2022/06/26 05:39:25;;;;;;;3.13;2.50;;;;;;;;;;4940102;28;20226;-54
2022/06/26 05:41:51;;;;;;;3.47;2.77;;;;;;;;;;4945402;28;20959;-55
2022/06/26 05:44:18;;;;;;;3.30;2.50;;;;;;;;;;4940112;28;20446;-55
2022/06/26 05:46:53;;;;;;;3.20;2.47;;;;;;;;;;4926188;28;20462;-55
2022/06/26 05:49:20;;;;;;;2.60;2.40;;;;;;;;;;4938154;28;20446;-55
2022/06/26 05:51:46;;;;;;;2.70;2.50;;;;;;;;;;4906680;28;20853;-54
2022/06/26 05:54:12;;;;;;;3.33;2.37;;;;;;;;;;4942324;28;20959;-56
2022/06/26 05:56:38;;;;;;;3.37;2.60;;;;;;;;;;4937926;28;20452;-55
2022/06/26 05:59:09;;;;;;;3.70;2.87;;;;;;;;;;4941114;28;20538;-55
2022/06/26 06:01:36;;;;;;;2.50;2.30;;;;;;;;;;4929357;28;20543;-53
2022/06/26 06:04:03;;;;;;;2.73;2.47;;;;;;;;;;4942400;28;20811;-57
2022/06/26 06:06:29;;;;;;;2.73;2.53;;;;;;;;;;4910310;28;20466;-53
2022/06/26 06:08:55;;;;;;;3.37;2.40;;;;;;;;;;4937033;28;20478;-56
2022/06/26 06:11:21;;;;;;;2.30;2.07;;;;;;;;;;4915112;28;20461;-54
2022/06/26 06:13:47;;;;;;;3.23;2.50;;;;;;;;;;4947853;28;20442;-56
2022/06/26 06:16:13;;;;;;;4.37;2.33;;;;;;;;;;4919902;28;20180;-53
2022/06/26 06:18:39;;;;;;;3.87;2.53;;;;;;;;;;4943989;28;20461;-55
2022/06/26 06:21:05;;;;;;;3.03;2.00;;;;;;;;;;4915287;28;20494;-56
2022/06/26 06:23:31;;;;;;;2.13;1.93;;;;;;;;;;4933820;28;20458;-53
2022/06/26 06:26:01;;;;;;;3.47;1.50;;;;;;;;;;4924341;28;20652;-55
2022/06/26 06:28:27;;;;;;;1.77;1.43;;;;;;;;;;4940518;28;20442;-55
2022/06/26 06:31:03;;;;;;;1.57;0.90;;;;;;;;;;4933218;28;20441;-55
2022/06/26 06:33:36;;;;;;;1.70;1.50;;;;;;;;;;4925221;28;20857;-56
2022/06/26 06:36:02;;;;;;;2.33;1.30;;;;;;;;;;4937613;28;20474;-55
2022/06/26 06:38:28;;;;;;;2.40;1.50;;;;;;;;;;4937011;28;21152;-56
2022/06/26 06:40:54;;;;;;;3.27;1.47;;;;;;;;;;4906783;28;20478;-56
2022/06/26 06:43:21;;;;;;;1.50;1.27;;;;;;;;;;4923125;28;20483;-55
2022/06/26 06:45:51;;;;;;;1.87;1.43;;;;;;;;;;4921205;28;21796;-58
2022/06/26 06:48:20;;;;;;;2.13;1.37;;;;;;;;;;4939448;28;20446;-54
2022/06/26 06:50:46;;;;;;;1.80;1.30;;;;;;;;;;4914253;28;20502;-56
2022/06/26 06:53:12;;;;;;;5.40;1.20;;;;;;;;;;4948037;28;20430;-55
2022/06/26 06:55:38;;;;;;;1.73;1.30;;;;;;;;;;4904477;28;20973;-56
2022/06/26 06:58:05;;;;;;;2.53;1.23;;;;;;;;;;4942937;28;20438;-55
2022/06/26 07:00:31;;;;;;;1.87;1.40;;;;;;;;;;4918278;28;20491;-55
2022/06/26 07:03:00;;;;;;;2.23;1.40;;;;;;;;;;4933042;28;20530;-60
2022/06/26 07:05:26;;;;;;;2.10;1.50;;;;;;;;;;4923319;28;20460;-56
2022/06/26 07:07:52;;;;;;;1.63;1.30;;;;;;;;;;4942634;28;20900;-56
2022/06/26 07:10:32;;;;;;;1.50;1.13;;;;;;;;;;4923005;28;20451;-57
2022/06/26 07:13:00;;;;;;;1.83;1.50;;;;;;;;;;4947116;28;20517;-54
2022/06/26 07:15:26;;;;;;;1.93;1.40;;;;;;;;;;4937621;28;20443;-57
2022/06/26 07:17:52;;;;;;;1.70;1.53;;;;;;;;;;4945659;28;21331;-57
2022/06/26 07:20:18;;;;;;;1.70;1.30;;;;;;;;;;4914114;28;21003;-57
2022/06/26 07:22:51;;;;;;;2.23;1.87;;;;;;;;;;4942194;28;20443;-57
2022/06/26 07:25:17;;;;;;;1.73;1.60;;;;;;;;;;4918118;28;20459;-56
2022/06/26 07:27:45;;;;;;;2.20;1.83;;;;;;;;;;4946119;28;20470;-57
2022/06/26 07:30:19;;;;;;;2.00;1.50;;;;;;;;;;4911979;28;20541;-58
2022/06/26 07:32:46;;;;;;;2.60;1.70;;;;;;;;;;4947271;28;20445;-56
2022/06/26 07:35:29;;;;;;;2.23;1.50;;;;;;;;;;4943364;28;20475;-57
2022/06/26 07:37:57;;;;;;;2.80;1.60;;;;;;;;;;4943020;28;20806;-59
2022/06/26 07:40:23;;;;;;;2.90;1.73;;;;;;;;;;4915978;28;20494;-56
2022/06/26 07:42:49;;;;;;;3.33;1.67;;;;;;;;;;4938801;28;20778;-56
2022/06/26 07:45:21;;;;;;;2.10;1.80;;;;;;;;;;4942170;28;20205;-56
2022/06/26 07:47:47;;;;;;;3.00;2.10;;;;;;;;;;4942841;28;20435;-56
2022/06/26 07:50:13;;;;;;;2.30;1.73;;;;;;;;;;4926378;28;20431;-58
2022/06/26 07:52:39;;;;;;;3.00;1.33;;;;;;;;;;4945281;28;20955;-56
2022/06/26 07:55:06;;;;;;;2.43;1.67;;;;;;;;;;4930847;28;20986;-56
2022/06/26 07:57:33;;;;;;;1.97;1.30;;;;;;;;;;4934276;28;20431;-55
2022/06/26 07:59:59;;;;;;;2.90;1.50;;;;;;;;;;4928259;28;20486;-57
2022/06/26 08:02:25;;;;;;;2.60;1.77;;;;;;;;;;4958126;28;20435;-55
2022/06/26 08:04:52;;;;;;;2.00;1.60;;;;;;;;;;4920057;28;20446;-56
2022/06/26 08:07:19;;;;;;;2.30;1.67;;;;;;;;;;4943991;28;20431;-55
2022/06/26 08:09:45;;;;;;;2.17;1.50;;;;;;;;;;4923239;28;20463;-56
2022/06/26 08:12:11;;;;;;;2.20;1.63;;;;;;;;;;4915575;28;20446;-58
2022/06/26 08:14:37;;;;;;;2.37;1.53;;;;;;;;;;4918454;28;20446;-56
2022/06/26 08:17:03;;;;;;;2.20;1.93;;;;;;;;;;4946383;28;20813;-56
2022/06/26 08:19:30;;;;;;;3.73;1.73;;;;;;;;;;4926246;28;21021;-54
2022/06/26 08:22:02;;;;;;;2.30;1.83;;;;;;;;;;4934167;28;20508;-57
2022/06/26 08:24:42;;;;;;;2.30;1.40;;;;;;;;;;4923110;28;20544;-59
2022/06/26 08:27:09;;;;;;;2.30;1.73;;;;;;;;;;4941903;28;20447;-58
2022/06/26 08:29:35;;;;;;;2.40;1.63;;;;;;;;;;4923275;28;20503;-57
2022/06/26 08:32:02;;;;;;;2.13;1.73;;;;;;;;;;4946144;28;20889;-57
2022/06/26 08:34:40;;;;;;;1.90;1.57;;;;;;;;;;4930623;28;20520;-58
2022/06/26 08:37:08;;;;;;;2.53;1.70;;;;;;;;;;4949942;28;20526;-56
2022/06/26 08:39:57;;;;;;;2.20;1.90;;;;;;;;;;4936297;28;23166;-56
2022/06/26 08:42:26;;;;;;;1.80;1.50;;;;;;;;;;4951869;28;20446;-56
2022/06/26 08:44:52;;;;;;;2.00;1.77;;;;;;;;;;4923863;28;20994;-57
2022/06/26 08:47:18;;;;;;;2.50;1.67;;;;;;;;;;4946041;28;20538;-56
2022/06/26 08:49:44;;;;;;;2.40;2.00;;;;;;;;;;4938536;28;21111;-60
2022/06/26 08:52:24;;;;;;;1.80;1.50;;;;;;;;;;4952468;28;20450;-56
2022/06/26 08:54:50;;;;;;;2.00;1.57;;;;;;;;;;4944625;28;21454;-55
2022/06/26 08:57:22;;;;;;;3.70;1.67;;;;;;;;;;4947124;28;20510;-56
2022/06/26 08:59:48;;;;;;;2.37;1.93;;;;;;;;;;4936050;28;20482;-56
2022/06/26 09:02:14;;;;;;;2.57;1.80;;;;;;;;;;4942734;28;20438;-59
2022/06/26 09:04:41;;;;;;;2.67;2.00;;;;;;;;;;4924816;28;20806;-55
2022/06/26 09:07:08;;;;;;;2.33;1.83;;;;;;;;;;4910689;28;21189;-56
2022/06/26 09:09:39;;;;;;;2.27;1.80;;;;;;;;;;4931258;28;20568;-58
2022/06/26 09:12:06;;;;;;;2.80;1.93;;;;;;;;;;4948732;28;20937;-57
2022/06/26 09:14:41;;;;;;;2.30;2.00;;;;;;;;;;4924698;28;21163;-57
2022/06/26 09:17:07;;;;;;;2.17;1.67;;;;;;;;;;4946091;28;20447;-56
2022/06/26 09:19:38;;;;;;;1.90;1.50;;;;;;;;;;4932078;28;21116;-55
2022/06/26 09:22:07;;;;;;;1.90;1.40;;;;;;;;;;4935107;28;20447;-56
2022/06/26 09:24:36;;;;;;;2.20;2.00;;;;;;;;;;4952161;28;20431;-54
2022/06/26 09:27:10;;;;;;;1.90;1.50;;;;;;;;;;4933964;28;20516;-54
2022/06/26 09:30:03;;;;;;;2.13;1.53;;;;;;;;;;4928894;28;21261;-56
2022/06/26 09:32:31;;;;;;;2.07;1.70;;;;;;;;;;4948205;28;20434;-56
2022/06/26 09:35:01;;;;;;;3.10;1.97;;;;;;;;;;4940007;28;20447;-56
2022/06/26 09:37:33;;;;;;;1.60;1.27;;;;;;;;;;4903155;28;20489;-56
2022/06/26 09:40:06;;;;;;;1.90;1.60;;;;;;;;;;4938528;28;20501;-56
2022/06/26 09:42:42;;;;;;;2.10;1.60;;;;;;;;;;4902738;28;21090;-59
2022/06/26 09:45:11;;;;;;;2.10;1.80;;;;;;;;;;4937648;28;20439;-57
2022/06/26 09:47:39;;;;;;;1.70;1.30;;;;;;;;;;4920759;28;20513;-58
2022/06/26 09:50:07;;;;;;;2.67;1.80;;;;;;;;;;4938870;28;20451;-57
2022/06/26 09:52:33;;;;;;;2.63;1.67;;;;;;;;;;4903986;28;20455;-57
2022/06/26 09:54:59;;;;;;;2.00;1.50;;;;;;;;;;4934918;28;20478;-57
2022/06/26 09:57:26;;;;;;;1.97;1.57;;;;;;;;;;4932913;28;20489;-56
2022/06/26 09:59:52;;;;;;;2.27;1.40;;;;;;;;;;4939355;28;20486;-57
2022/06/26 10:07:52;;;;;;;1.90;1.70;;;;;;;;;;4912205;28;23314;-57
2022/06/26 10:10:22;;;;;;;2.03;1.60;;;;;;;;;;4934691;28;20453;-56
2022/06/26 10:12:56;;;;;;;2.10;1.67;;;;;;;;;;4923532;28;21035;-59
2022/06/26 10:15:25;;;;;;;3.40;1.50;;;;;;;;;;4942254;28;21001;-56
2022/06/26 10:18:09;;;;;;;2.53;1.70;;;;;;;;;;4912818;28;20473;-57
2022/06/26 10:20:35;;;;;;;1.90;1.50;;;;;;;;;;4937532;28;23948;-56
2022/06/26 10:23:01;;;;;;;2.20;2.00;;;;;;;;;;4892561;28;20443;-57
2022/06/26 10:25:28;;;;;;;2.27;1.70;;;;;;;;;;4939486;28;20480;-58
2022/06/26 10:27:55;;;;;;;2.30;1.50;;;;;;;;;;4919873;28;20451;-56
2022/06/26 10:30:25;;;;;;;2.13;1.90;;;;;;;;;;4939498;28;20454;-57
2022/06/26 10:33:26;;;;;;;3.13;2.03;;;;;;;;;;4939042;28;20452;-56
2022/06/26 10:35:54;;;;;;;3.33;2.10;;;;;;;;;;4923259;29;20453;-57
2022/06/26 10:38:21;;;;;;;2.13;1.70;;;;;;;;;;4912006;28;21376;-58
2022/06/26 10:43:42;;;;;;;3.30;1.97;;;;;;;;;;4928450;28;20437;-57
2022/06/26 10:46:08;;;;;;;2.30;1.70;;;;;;;;;;4942130;28;20450;-58
2022/06/26 10:49:01;;;;;;;2.30;1.80;;;;;;;;;;4929214;28;20786;-59
2022/06/26 10:51:29;;;;;;;2.57;1.50;;;;;;;;;;4908550;28;20534;-58
2022/06/26 10:57:15;;;;;;;2.23;1.80;;;;;;;;;;4928891;28;21189;-59
2022/06/26 10:59:51;;;;;;;3.10;1.43;;;;;;;;;;4923269;28;20644;-58
2022/06/26 11:02:23;;;;;;;2.37;1.60;;;;;;;;;;4940811;28;20474;-58
2022/06/26 11:04:50;;;;;;;2.17;1.40;;;;;;;;;;4916756;28;20570;-57
2022/06/26 11:07:19;;;;;;;2.07;1.70;;;;;;;;;;4936509;28;20442;-58
2022/06/26 11:10:00;;;;;;;1.87;1.57;;;;;;;;;;4954276;28;20981;-57
2022/06/26 11:12:27;;;;;;;2.40;1.60;;;;;;;;;;4944240;28;20432;-59
2022/06/26 11:14:54;;;;;;;1.70;1.33;;;;;;;;;;4930998;28;20497;-56
2022/06/26 11:17:23;;;;;;;2.10;1.40;;;;;;;;;;4937335;28;20454;-58
2022/06/26 11:22:43;;;;;;;1.70;1.20;;;;;;;;;;4938024;28;20446;-59
2022/06/26 11:25:09;;;;;;;2.10;1.57;;;;;;;;;;4938278;28;20470;-59
2022/06/26 11:27:36;;;;;;;3.53;1.30;;;;;;;;;;4947937;28;20462;-59
2022/06/26 11:30:18;;;;;;;2.13;1.57;;;;;;;;;;4914432;28;20447;-57
2022/06/26 11:32:48;;;;;;;2.00;1.27;;;;;;;;;;4943428;28;20514;-57
2022/06/26 11:35:24;;;;;;;1.70;1.20;;;;;;;;;;4914562;28;20889;-58
2022/06/26 11:37:50;;;;;;;4.60;1.37;;;;;;;;;;4940786;28;20461;-58
2022/06/26 11:40:18;;;;;;;2.53;1.60;;;;;;;;;;4887857;28;20850;-58
2022/06/26 11:42:51;;;;;;;1.97;1.50;;;;;;;;;;4937333;28;20521;-59
2022/06/26 11:45:24;;;;;;;2.93;1.67;;;;;;;;;;4923722;28;20446;-57
2022/06/26 11:47:50;;;;;;;3.47;1.63;;;;;;;;;;4924824;28;20502;-58
2022/06/26 11:50:29;;;;;;;2.73;1.23;;;;;;;;;;4926495;28;20452;-58
2022/06/26 11:52:57;;;;;;;1.73;1.20;;;;;;;;;;4942607;28;20454;-59
2022/06/26 11:55:23;;;;;;;2.13;1.40;;;;;;;;;;4932573;28;20466;-58
2022/06/26 11:57:53;;;;;;;1.60;1.10;;;;;;;;;;4935638;28;20511;-58
2022/06/26 12:00:21;;;;;;;2.77;1.47;;;;;;;;;;4930066;28;20569;-59
2022/06/26 12:02:48;;;;;;;1.77;1.37;;;;;;;;;;4931337;28;20542;-59
2022/06/26 12:05:20;;;;;;;1.80;1.30;;;;;;;;;;4935500;28;20481;-60
2022/06/26 12:07:47;;;;;;;2.77;1.87;;;;;;;;;;4943258;28;20553;-57
2022/06/26 12:10:27;;;;;;;2.07;1.83;;;;;;;;;;4933035;28;20979;-58
2022/06/26 12:12:58;;;;;;;3.20;1.50;;;;;;;;;;4948730;28;20529;-59
2022/06/26 12:15:27;;;;;;;2.03;1.60;;;;;;;;;;4923285;28;20461;-59
2022/06/26 12:17:56;;;;;;;1.80;1.30;;;;;;;;;;4939625;28;20447;-59
2022/06/26 12:20:22;;;;;;;3.43;1.67;;;;;;;;;;4926838;28;20494;-60
2022/06/26 12:22:52;;;;;;;2.70;1.20;;;;;;;;;;4940801;28;21423;-59
2022/06/26 12:25:28;;;;;;;2.67;1.50;;;;;;;;;;4940548;28;20432;-59
2022/06/26 12:27:54;;;;;;;2.57;1.47;;;;;;;;;;4940784;28;20533;-59
2022/06/26 12:30:25;;;;;;;1.77;1.20;;;;;;;;;;4921943;28;20440;-58
2022/06/26 12:32:51;;;;;;;2.03;1.60;;;;;;;;;;4936309;28;20448;-56
2022/06/26 12:35:17;;;;;;;1.60;1.30;;;;;;;;;;4911939;28;20446;-57
2022/06/26 12:37:44;;;;;;;1.87;1.37;;;;;;;;;;4938889;28;20183;-58
2022/06/26 12:40:12;;;;;;;2.90;1.60;;;;;;;;;;4916857;28;21025;-58
2022/06/26 12:42:39;;;;;;;1.90;1.40;;;;;;;;;;4937983;28;20431;-58
2022/06/26 12:45:16;;;;;;;1.73;1.20;;;;;;;;;;4917358;28;20490;-58
2022/06/26 12:47:46;;;;;;;1.90;1.37;;;;;;;;;;4934846;28;20442;-58
2022/06/26 12:50:16;;;;;;;1.90;1.33;;;;;;;;;;4897362;28;20451;-60
2022/06/26 12:52:42;;;;;;;2.87;1.83;;;;;;;;;;4941131;28;20450;-58
2022/06/26 12:55:09;;;;;;;1.77;1.50;;;;;;;;;;4931456;28;20450;-60
2022/06/26 12:57:36;;;;;;;3.90;1.40;;;;;;;;;;4932069;28;20443;-60
2022/06/26 13:00:04;;;;;;;2.03;1.70;;;;;;;;;;4924042;28;20490;-59
2022/06/26 13:02:30;;;;;;;1.90;1.30;;;;;;;;;;4945684;28;20434;-59
2022/06/26 13:04:56;;;;;;;2.30;1.50;;;;;;;;;;4906201;28;20447;-60
2022/06/26 13:07:22;;;;;;;3.47;1.43;;;;;;;;;;4944105;28;20459;-59
2022/06/26 13:09:48;;;;;;;2.00;1.47;;;;;;;;;;4909049;28;20500;-58
2022/06/26 13:12:14;;;;;;;2.87;1.50;;;;;;;;;;4936405;28;20439;-59
2022/06/26 13:14:41;;;;;;;1.90;1.40;;;;;;;;;;4936133;28;20550;-59
2022/06/26 13:17:09;;;;;;;2.17;1.50;;;;;;;;;;4942361;28;20442;-59
2022/06/26 13:19:46;;;;;;;2.00;1.53;;;;;;;;;;4931267;28;21346;-61
2022/06/26 13:22:13;;;;;;;1.93;1.40;;;;;;;;;;4947732;28;20518;-60
2022/06/26 13:24:39;;;;;;;2.33;1.83;;;;;;;;;;4964142;28;20439;-59
2022/06/26 13:27:05;;;;;;;2.63;1.60;;;;;;;;;;4946465;28;20548;-60
2022/06/26 13:29:32;;;;;;;2.10;1.70;;;;;;;;;;4931929;28;20485;-60
2022/06/26 13:32:00;;;;;;;3.00;1.80;;;;;;;;;;4947599;28;20510;-59
2022/06/26 13:34:26;;;;;;;2.00;1.63;;;;;;;;;;4918772;28;20458;-58
2022/06/26 13:36:57;;;;;;;1.70;1.40;;;;;;;;;;4933910;28;20536;-59
2022/06/26 13:39:23;;;;;;;1.87;1.30;;;;;;;;;;4925084;28;21286;-60
2022/06/26 13:41:53;;;;;;;1.83;1.47;;;;;;;;;;4951037;28;20443;-60
2022/06/26 13:44:19;;;;;;;2.10;1.40;;;;;;;;;;4942408;28;20439;-59
2022/06/26 13:46:46;;;;;;;1.80;1.47;;;;;;;;;;4940672;28;20446;-59
2022/06/26 13:49:13;;;;;;;2.47;1.67;;;;;;;;;;4941096;28;20451;-59
2022/06/26 13:51:39;;;;;;;2.30;1.43;;;;;;;;;;4940703;28;20443;-59
2022/06/26 13:57:11;;;;;;;2.20;1.40;;;;;;;;;;4913480;28;20483;-59
2022/06/26 13:59:38;;;;;;;1.80;1.40;;;;;;;;;;4925520;29;20551;-59
2022/06/26 14:02:04;;;;;;;1.90;1.70;;;;;;;;;;4892403;29;20460;-58
2022/06/26 14:04:39;;;;;;;2.60;1.50;;;;;;;;;;4912784;29;21048;-59
2022/06/26 14:07:06;;;;;;;2.90;1.40;;;;;;;;;;4902765;29;20443;-57
2022/06/26 14:09:33;;;;;;;2.50;1.40;;;;;;;;;;4921856;29;20441;-58
2022/06/26 14:12:01;;;;;;;1.80;1.50;;;;;;;;;;4894651;29;20476;-59
2022/06/26 14:14:28;;;;;;;2.30;2.10;;;;;;;;;;4920517;29;20440;-59
2022/06/26 14:16:54;;;;;;;2.57;1.60;;;;;;;;;;4907109;29;20523;-58
2022/06/26 14:19:20;;;;;;;2.53;2.23;;;;;;;;;;4922965;29;20443;-58
2022/06/26 14:25:55;;;;;;;3.23;1.53;;;;;;;;;;4898684;29;21637;-58
2022/06/26 14:27:17;;;;;;;2.07;1.63;;;;;;;;;;4894599;29;20519;-60
2022/06/26 14:29:46;;;;;;;2.90;1.50;;;;;;;;;;4920518;29;20921;-59
2022/06/26 14:32:12;;;;;;;1.80;1.50;;;;;;;;;;4904068;29;20188;-60
2022/06/26 14:34:42;;;;;;;3.10;1.70;;;;;;;;;;4921428;29;20448;-58
2022/06/26 14:37:13;;;;;;;2.00;1.77;;;;;;;;;;4917368;29;20712;-59
2022/06/26 14:39:50;;;;;;;2.73;1.60;;;;;;;;;;4925203;29;20491;-59
2022/06/26 14:42:18;;;;;;;2.93;1.80;;;;;;;;;;4892666;29;20910;-59
2022/06/26 14:44:44;;;;;;;2.93;2.00;;;;;;;;;;4922963;29;20419;-58
2022/06/26 14:47:10;;;;;;;2.40;1.90;;;;;;;;;;4893570;29;20795;-60
2022/06/26 14:49:41;;;;;;;2.40;2.20;;;;;;;;;;4920023;29;20451;-60
2022/06/26 14:52:11;;;;;;;4.60;2.13;;;;;;;;;;4896601;29;20447;-59
2022/06/26 14:54:59;;;;;;;1.97;1.60;;;;;;;;;;4929324;29;20488;-58
2022/06/26 14:57:28;;;;;;;2.63;1.70;;;;;;;;;;4907532;28;21378;-57
2022/06/26 14:59:54;;;;;;;2.67;1.90;;;;;;;;;;4917783;29;20479;-57
2022/06/26 15:02:20;;;;;;;2.23;2.03;;;;;;;;;;4879001;29;20474;-62
2022/06/26 15:04:46;;;;;;;2.37;1.97;;;;;;;;;;4920092;29;20440;-57
2022/06/26 15:07:12;;;;;;;2.07;1.70;;;;;;;;;;4895802;29;20529;-58
2022/06/26 15:09:38;;;;;;;2.10;1.77;;;;;;;;;;4914539;29;20458;-57
2022/06/26 15:12:05;;;;;;;2.40;1.73;;;;;;;;;;4901548;29;20455;-58
2022/06/26 15:14:37;;;;;;;2.07;1.50;;;;;;;;;;4922540;29;20446;-58
2022/06/26 15:17:03;;;;;;;1.90;1.70;;;;;;;;;;4901766;29;20439;-57